Time;durP1;ratioP1;P1;durP2;ratioP2;P2;SDS_P1;SDS_P2;PMS_P1;PMS_P2;Temp;Humidity;BMP_temperature;BMP_pressure;BME280_temperature;BME280_humidity;BME280_pressure;Samples;Min_cycle;Max_cycle;Signal;HPM_P1;HPM_P2
2022/07/10 00:02:21;;;;;;;7.05;1.83;;;;;;;19.18;53.25;102146.53;5036298;28;20061;-63
2022/07/10 00:04:48;;;;;;;6.35;1.90;;;;;;;18.92;53.88;102149.47;5027982;28;20041;-64
2022/07/10 00:07:16;;;;;;;7.25;1.83;;;;;;;19.11;53.58;102143.44;5037997;28;20052;-64
2022/07/10 00:09:43;;;;;;;5.30;1.60;;;;;;;19.07;53.62;102153.66;5041207;28;20045;-64
2022/07/10 00:12:10;;;;;;;7.60;1.77;;;;;;;18.67;54.66;102149.56;5034091;28;20080;-64
2022/07/10 00:14:37;;;;;;;10.95;1.67;;;;;;;18.76;54.51;102148.38;5043223;28;20057;-64
2022/07/10 00:17:05;;;;;;;10.43;2.05;;;;;;;18.63;54.89;102143.00;5034795;28;20544;-64
2022/07/10 00:19:32;;;;;;;10.25;2.00;;;;;;;18.79;54.51;102144.09;5049261;28;20057;-64
2022/07/10 00:22:00;;;;;;;7.22;1.85;;;;;;;18.77;54.74;102143.59;5033432;28;20076;-64
2022/07/10 00:24:27;;;;;;;8.10;1.90;;;;;;;18.81;55.10;102141.78;5039350;28;20045;-64
2022/07/10 00:26:54;;;;;;;10.73;2.20;;;;;;;18.98;54.28;102150.09;5043904;28;20053;-64
2022/07/10 00:29:22;;;;;;;7.40;2.95;;;;;;;18.70;55.60;102148.88;5047634;28;20052;-64
2022/07/10 00:31:49;;;;;;;12.85;2.78;;;;;;;18.66;55.59;102161.84;5043720;28;20049;-64
2022/07/10 00:34:16;;;;;;;13.02;3.35;;;;;;;18.62;55.88;102166.50;5039550;28;20133;-64
2022/07/10 00:36:43;;;;;;;11.13;3.10;;;;;;;18.32;57.17;102147.97;5038968;28;20054;-65
2022/07/10 00:39:11;;;;;;;10.10;3.22;;;;;;;18.37;57.32;102159.78;5034151;28;20072;-63
2022/07/10 00:41:38;;;;;;;13.82;2.85;;;;;;;18.32;57.31;102142.38;5037723;28;20081;-64
2022/07/10 00:44:05;;;;;;;12.52;2.63;;;;;;;18.34;57.59;102152.03;5041145;28;20056;-64
2022/07/10 00:46:33;;;;;;;10.00;2.35;;;;;;;18.25;57.66;102148.47;5047804;28;20051;-64
2022/07/10 00:49:00;;;;;;;8.73;2.17;;;;;;;18.36;57.20;102140.59;5038722;28;20053;-64
2022/07/10 00:51:29;;;;;;;9.57;2.38;;;;;;;18.12;57.88;102148.63;5032032;28;20057;-65
2022/07/10 00:53:57;;;;;;;7.88;2.40;;;;;;;18.09;58.23;102140.94;5032334;28;20124;-64
2022/07/10 00:56:25;;;;;;;7.53;2.50;;;;;;;17.94;58.71;102145.03;5036805;28;20061;-64
2022/07/10 00:58:53;;;;;;;9.60;2.10;;;;;;;17.89;58.97;102134.88;5062175;28;20060;-64
2022/07/10 01:01:22;;;;;;;6.95;2.20;;;;;;;17.79;59.32;102142.75;5051920;28;20396;-64
2022/07/10 01:03:50;;;;;;;10.85;2.85;;;;;;;17.68;59.60;102144.19;5030787;28;20052;-64
2022/07/10 01:06:17;;;;;;;8.15;2.08;;;;;;;17.79;59.67;102140.78;5033408;28;20056;-65
2022/07/10 01:08:45;;;;;;;7.80;2.15;;;;;;;17.77;59.65;102148.66;5035585;28;20045;-65
2022/07/10 01:11:14;;;;;;;5.03;2.22;;;;;;;17.85;59.68;102135.88;5014433;28;20037;-63
2022/07/10 01:13:43;;;;;;;9.27;2.15;;;;;;;17.85;59.55;102136.66;5035592;28;20077;-65
2022/07/10 01:16:11;;;;;;;10.35;2.33;;;;;;;17.80;59.83;102127.69;5042784;28;20053;-64
2022/07/10 01:18:39;;;;;;;7.28;2.28;;;;;;;17.81;59.96;102135.72;5041650;28;20052;-64
2022/07/10 01:21:32;;;;;;;7.68;2.20;;;;;;;17.81;59.82;102132.91;5039514;28;20076;-64
2022/07/10 01:24:00;;;;;;;8.77;2.28;;;;;;;17.89;59.79;102136.84;5041241;28;20061;-64
2022/07/10 01:26:27;;;;;;;8.80;2.08;;;;;;;17.85;59.86;102149.81;5045326;28;20045;-65
2022/07/10 01:28:55;;;;;;;7.82;1.90;;;;;;;17.99;59.58;102136.53;5040561;28;20053;-64
2022/07/10 01:31:26;;;;;;;8.20;2.35;;;;;;;18.03;59.36;102137.50;5035652;28;20045;-64
2022/07/10 01:33:54;;;;;;;9.18;2.63;;;;;;;17.99;59.28;102134.53;5031563;28;20052;-64
2022/07/10 01:36:22;;;;;;;8.25;2.38;;;;;;;18.11;59.53;102133.88;5029779;28;20046;-64
2022/07/10 01:38:53;;;;;;;8.10;2.30;;;;;;;18.05;59.21;102132.41;5028171;28;20062;-64
2022/07/10 01:41:21;;;;;;;10.43;2.10;;;;;;;17.76;60.06;102144.25;5036670;28;20045;-64
2022/07/10 01:43:49;;;;;;;7.93;2.47;;;;;;;17.36;61.65;102134.31;5042518;28;20049;-64
2022/07/10 01:46:16;;;;;;;11.70;2.40;;;;;;;17.49;61.48;102141.72;5042235;28;20064;-64
2022/07/10 01:48:44;;;;;;;7.22;2.40;;;;;;;17.43;61.49;102140.22;5046057;28;20048;-64
2022/07/10 01:51:11;;;;;;;11.75;2.80;;;;;;;17.24;62.27;102141.66;5039174;28;20061;-65
2022/07/10 01:53:39;;;;;;;13.13;2.15;;;;;;;17.48;61.40;102144.84;5047883;28;20049;-65
2022/07/10 01:56:08;;;;;;;11.68;2.08;;;;;;;17.61;60.80;102136.34;5038943;28;20565;-64
2022/07/10 01:58:36;;;;;;;11.25;2.40;;;;;;;17.50;60.69;102150.91;5044458;28;20048;-64
2022/07/10 02:01:05;;;;;;;11.90;2.50;;;;;;;17.60;60.96;102145.03;5039525;28;20052;-64
2022/07/10 02:06:18;;;;;;;6.85;1.98;;;;;;;17.76;60.06;102135.88;5033356;28;20049;-64
2022/07/10 02:08:46;;;;;;;6.85;1.92;;;;;;;17.78;59.98;102141.91;5049199;28;20080;-64
2022/07/10 02:11:13;;;;;;;8.20;2.20;;;;;;;17.48;60.68;102140.09;5048104;28;20057;-65
2022/07/10 02:13:40;;;;;;;6.18;2.00;;;;;;;17.35;61.17;102138.22;5040469;28;20053;-64
2022/07/10 02:16:07;;;;;;;11.82;1.95;;;;;;;17.40;60.83;102152.00;5036202;28;20056;-64
2022/07/10 02:18:35;;;;;;;9.35;2.47;;;;;;;17.34;61.37;102152.47;5048744;28;20649;-64
2022/07/10 02:21:03;;;;;;;8.43;2.33;;;;;;;17.20;61.36;102147.06;5044249;28;20045;-64
2022/07/10 02:23:30;;;;;;;7.00;2.10;;;;;;;17.27;61.58;102147.41;5043023;28;20057;-63
2022/07/10 02:25:57;;;;;;;6.68;1.80;;;;;;;17.53;61.01;102141.91;5046552;28;20062;-65
2022/07/10 02:28:25;;;;;;;7.57;2.20;;;;;;;17.19;61.25;102134.25;5036429;28;20049;-65
2022/07/10 02:30:53;;;;;;;9.00;2.20;;;;;;;17.28;61.03;102139.84;5049143;28;20049;-64
2022/07/10 02:33:20;;;;;;;7.75;2.03;;;;;;;17.10;61.47;102135.38;5044320;28;20053;-64
2022/07/10 02:35:48;;;;;;;8.23;2.20;;;;;;;17.07;61.37;102139.63;5043366;28;20045;-63
2022/07/10 02:38:15;;;;;;;7.38;2.00;;;;;;;17.14;61.10;102128.84;5034584;28;20053;-64
2022/07/10 02:40:42;;;;;;;8.23;1.80;;;;;;;17.19;61.27;102127.88;5018535;28;20045;-64
2022/07/10 02:43:09;;;;;;;7.57;2.20;;;;;;;17.14;61.26;102131.63;5037289;28;20404;-64
2022/07/10 02:45:37;;;;;;;5.13;2.03;;;;;;;17.10;61.33;102129.81;5044476;28;20484;-65
2022/07/10 02:48:10;;;;;;;10.02;2.22;;;;;;;17.05;61.81;102116.84;5039147;28;20060;-64
2022/07/10 02:50:37;;;;;;;7.22;2.40;;;;;;;17.11;61.55;102115.56;5036949;28;20046;-63
2022/07/10 02:53:05;;;;;;;7.68;2.05;;;;;;;17.17;61.40;102114.28;5040932;28;20057;-64
2022/07/10 02:55:33;;;;;;;9.30;2.47;;;;;;;17.17;61.43;102105.09;5046140;28;20076;-64
2022/07/10 02:58:01;;;;;;;11.65;2.70;;;;;;;17.18;61.36;102118.69;5039855;28;20045;-64
2022/07/10 03:00:28;;;;;;;9.00;2.17;;;;;;;17.04;61.66;102106.88;5046256;28;20053;-64
2022/07/10 03:02:55;;;;;;;7.93;2.45;;;;;;;17.00;62.00;102117.00;5038932;28;20053;-64
2022/07/10 03:05:23;;;;;;;8.40;2.22;;;;;;;17.18;61.56;102104.78;5036503;28;20814;-64
2022/07/10 03:07:50;;;;;;;8.00;2.20;;;;;;;17.24;61.55;102113.81;5043792;28;20057;-65
2022/07/10 03:10:18;;;;;;;14.80;2.45;;;;;;;17.11;61.56;102123.09;5036371;28;20072;-65
2022/07/10 03:12:45;;;;;;;12.23;2.55;;;;;;;16.99;62.17;102115.38;5052278;28;20471;-64
2022/07/10 03:15:13;;;;;;;10.80;2.90;;;;;;;17.02;62.25;102116.66;5033741;28;20055;-66
2022/07/10 03:17:40;;;;;;;7.70;2.67;;;;;;;17.12;61.89;102111.63;5038193;28;20533;-65
2022/07/10 03:20:08;;;;;;;10.38;2.55;;;;;;;16.89;62.65;102119.25;5040402;28;20041;-65
2022/07/10 03:22:36;;;;;;;6.75;2.10;;;;;;;16.83;62.88;102115.00;5042508;28;20045;-64
2022/07/10 03:25:04;;;;;;;6.78;2.45;;;;;;;16.77;63.35;102119.03;5025192;28;20062;-64
2022/07/10 03:27:32;;;;;;;8.85;2.60;;;;;;;16.64;63.76;102110.81;5038483;28;20519;-64
2022/07/10 03:29:59;;;;;;;7.63;2.35;;;;;;;16.51;64.42;102109.75;5041528;28;20052;-64
2022/07/10 03:32:26;;;;;;;6.05;2.20;;;;;;;16.66;63.84;102111.31;5033804;28;20045;-64
2022/07/10 03:34:54;;;;;;;8.32;2.85;;;;;;;16.51;64.54;102108.97;5031656;28;20049;-63
2022/07/10 03:37:21;;;;;;;11.68;2.58;;;;;;;16.75;63.67;102106.59;5032311;28;20065;-64
2022/07/10 03:39:48;;;;;;;8.32;2.40;;;;;;;16.50;64.29;102104.50;5039945;28;20045;-64
2022/07/10 03:42:16;;;;;;;8.05;2.28;;;;;;;16.54;64.43;102111.09;5038975;28;20062;-64
2022/07/10 03:44:43;;;;;;;8.75;2.47;;;;;;;16.49;64.63;102120.38;5035347;28;20508;-64
2022/07/10 03:47:10;;;;;;;9.82;2.38;;;;;;;16.43;64.98;102115.25;5037263;28;20053;-63
2022/07/10 03:49:41;;;;;;;9.30;2.50;;;;;;;16.47;64.93;102106.00;5039858;28;20045;-63
2022/07/10 03:52:08;;;;;;;8.32;3.05;;;;;;;16.39;65.06;102108.66;5041763;28;20063;-64
2022/07/10 03:54:36;;;;;;;7.90;2.60;;;;;;;16.55;65.04;102105.22;5042380;28;20049;-64
2022/07/10 03:59:50;;;;;;;10.02;3.35;;;;;;;16.43;65.29;102106.91;5022615;28;20049;-65
2022/07/10 04:02:17;;;;;;;9.65;3.15;;;;;;;16.63;64.64;102103.63;5041900;28;20076;-65
2022/07/10 04:04:44;;;;;;;6.63;2.67;;;;;;;16.74;64.20;102097.44;5020792;28;20060;-65
2022/07/10 04:07:12;;;;;;;10.32;2.60;;;;;;;16.81;63.92;102097.78;5037761;28;20060;-65
2022/07/10 04:09:41;;;;;;;11.20;2.47;;;;;;;16.78;64.01;102095.66;5038018;28;20065;-65
2022/07/10 04:12:08;;;;;;;5.90;2.50;;;;;;;16.93;63.43;102090.78;5043834;28;20057;-59
2022/07/10 04:14:36;;;;;;;7.80;2.60;;;;;;;16.65;64.11;102096.56;5040782;28;20049;-60
2022/07/10 04:17:03;;;;;;;9.13;2.80;;;;;;;16.92;63.50;102103.88;5040858;28;20053;-65
2022/07/10 04:19:31;;;;;;;7.20;2.75;;;;;;;16.72;64.07;102099.72;5032900;28;20044;-60
2022/07/10 04:21:58;;;;;;;8.85;2.80;;;;;;;16.76;64.17;102111.03;5021736;28;20057;-60
2022/07/10 04:24:25;;;;;;;9.65;2.85;;;;;;;16.63;64.30;102101.63;5051635;28;20063;-65
2022/07/10 04:26:53;;;;;;;8.98;2.50;;;;;;;16.77;64.08;102107.13;5041188;28;20045;-60
2022/07/10 04:29:20;;;;;;;10.40;2.97;;;;;;;16.85;63.46;102103.53;5034419;28;20060;-60
2022/07/10 04:31:47;;;;;;;7.63;2.60;;;;;;;16.57;64.50;102114.06;5040223;28;20159;-63
2022/07/10 04:34:15;;;;;;;7.82;2.50;;;;;;;16.40;65.28;102102.81;5036084;28;20060;-64
2022/07/10 04:36:42;;;;;;;9.43;2.90;;;;;;;16.51;64.60;102111.75;5041576;28;20064;-65
2022/07/10 04:39:09;;;;;;;5.93;2.47;;;;;;;16.48;64.92;102106.78;5031065;28;20060;-67
2022/07/10 04:41:37;;;;;;;7.80;2.50;;;;;;;16.55;64.68;102101.59;5038537;28;20049;-65
2022/07/10 04:44:04;;;;;;;11.60;2.72;;;;;;;16.56;64.83;102106.84;5035136;28;20677;-64
2022/07/10 04:46:31;;;;;;;8.63;2.38;;;;;;;16.58;64.54;102112.09;5040883;28;20053;-64
2022/07/10 04:48:59;;;;;;;7.40;2.33;;;;;;;16.55;64.74;102107.16;5033339;28;20060;-64
2022/07/10 04:51:26;;;;;;;10.85;3.10;;;;;;;16.65;64.45;102107.69;5039054;28;20054;-65
2022/07/10 04:53:54;;;;;;;11.90;2.60;;;;;;;16.68;63.79;102109.03;5035322;28;20041;-59
2022/07/10 04:56:21;;;;;;;9.13;2.78;;;;;;;16.48;64.58;102117.91;5034404;28;20053;-64
2022/07/10 04:58:48;;;;;;;10.50;3.15;;;;;;;16.45;64.92;102110.19;5017185;28;20049;-65
2022/07/10 05:01:19;;;;;;;;;;;;;;;16.50;64.79;102110.09;5044538;28;20116;-66
2022/07/10 05:03:47;;;;;;;14.18;3.17;;;;;;;16.25;65.58;102108.75;5055819;28;19931;-64
2022/07/10 05:06:15;;;;;;;9.05;2.55;;;;;;;16.42;65.12;102103.28;5046441;28;20071;-64
2022/07/10 05:08:42;;;;;;;14.40;2.88;;;;;;;16.31;65.60;102112.22;5045383;28;20056;-64
2022/07/10 05:11:10;;;;;;;8.57;3.08;;;;;;;16.53;65.14;102109.44;5040079;28;20108;-64
2022/07/10 05:13:38;;;;;;;8.38;2.92;;;;;;;16.57;64.57;102110.44;5017729;28;20045;-60
2022/07/10 05:16:05;;;;;;;7.15;2.85;;;;;;;16.45;65.09;102112.97;5037347;28;20057;-60
2022/07/10 05:18:32;;;;;;;12.60;2.92;;;;;;;16.71;64.60;102112.00;5045203;28;20158;-59
2022/07/10 05:21:00;;;;;;;11.63;2.75;;;;;;;16.80;63.98;102114.81;5044004;28;20049;-60
2022/07/10 05:23:27;;;;;;;10.95;2.67;;;;;;;16.79;64.18;102113.16;5038436;28;20049;-55
2022/07/10 05:25:54;;;;;;;10.45;3.15;;;;;;;16.70;64.02;102115.91;5038944;28;20072;-58
2022/07/10 05:28:22;;;;;;;7.03;2.72;;;;;;;16.78;63.87;102119.88;5044313;28;20052;-58
2022/07/10 05:30:49;;;;;;;7.72;2.45;;;;;;;16.88;63.60;102116.78;5035185;28;20053;-60
2022/07/10 05:33:16;;;;;;;8.77;2.75;;;;;;;17.17;63.00;102107.88;5035802;28;20049;-65
2022/07/10 05:35:44;;;;;;;12.15;2.72;;;;;;;17.20;62.73;102116.41;5042367;28;20049;-64
2022/07/10 05:38:12;;;;;;;8.82;2.83;;;;;;;17.35;61.93;102113.16;5034879;28;20049;-65
2022/07/10 05:40:39;;;;;;;13.40;3.33;;;;;;;17.02;62.98;102122.25;5034292;28;20049;-63
2022/07/10 05:43:07;;;;;;;13.27;3.22;;;;;;;17.11;62.49;102125.88;5032993;28;20046;-59
2022/07/10 05:45:34;;;;;;;7.68;2.83;;;;;;;16.95;62.40;102138.59;5031937;28;20053;-61
2022/07/10 05:48:02;;;;;;;9.10;2.65;;;;;;;16.95;62.44;102133.03;5028309;28;20045;-65
2022/07/10 05:50:30;;;;;;;12.95;3.28;;;;;;;16.96;62.46;102129.13;5039072;28;20228;-64
2022/07/10 05:52:57;;;;;;;8.45;2.55;;;;;;;16.89;62.70;102135.94;5044278;28;20404;-65
2022/07/10 05:55:25;;;;;;;12.82;2.40;;;;;;;16.98;62.06;102132.41;5042991;28;20057;-65
2022/07/10 05:57:54;;;;;;;11.73;2.65;;;;;;;17.13;61.85;102134.72;5045336;28;20437;-59
2022/07/10 06:00:21;;;;;;;10.23;3.13;;;;;;;17.02;61.82;102133.38;5042162;28;20394;-60
2022/07/10 06:02:49;;;;;;;12.02;2.97;;;;;;;16.96;62.14;102126.34;5013139;28;20046;-61
2022/07/10 06:05:16;;;;;;;7.82;2.92;;;;;;;17.07;62.24;102130.47;5017130;28;20512;-59
2022/07/10 06:07:43;;;;;;;13.60;3.53;;;;;;;17.17;61.90;102132.94;5036221;28;20045;-61
2022/07/10 06:10:11;;;;;;;9.95;2.55;;;;;;;17.21;61.37;102133.97;5035001;28;20052;-59
2022/07/10 06:12:38;;;;;;;11.52;2.50;;;;;;;17.22;61.31;102136.41;5048297;28;20404;-60
2022/07/10 06:15:06;;;;;;;9.75;2.70;;;;;;;17.19;61.24;102128.69;5035566;28;20049;-59
2022/07/10 06:17:33;;;;;;;10.82;2.60;;;;;;;17.29;60.62;102133.16;5036368;28;20067;-60
2022/07/10 06:20:00;;;;;;;12.48;2.75;;;;;;;17.11;61.17;102123.91;5035804;28;20523;-64
2022/07/10 06:22:30;;;;;;;9.77;2.50;;;;;;;17.17;60.66;102125.44;5041320;28;20041;-64
2022/07/10 06:25:03;;;;;;;9.90;2.58;;;;;;;17.43;60.02;102125.47;5032328;28;20060;-65
2022/07/10 06:27:31;;;;;;;7.32;2.60;;;;;;;17.35;60.11;102124.31;5035254;28;20384;-64
2022/07/10 06:29:59;;;;;;;8.73;2.88;;;;;;;17.43;59.85;102122.69;5059640;28;20048;-65
2022/07/10 06:32:26;;;;;;;10.07;2.70;;;;;;;17.58;59.28;102123.06;5036277;28;20052;-65
2022/07/10 06:34:54;;;;;;;9.10;2.67;;;;;;;17.64;59.06;102126.50;5050534;28;20045;-65
2022/07/10 06:37:22;;;;;;;10.52;2.65;;;;;;;17.57;58.53;102135.34;5041118;28;20092;-64
2022/07/10 06:39:49;;;;;;;8.43;2.50;;;;;;;17.50;59.08;102129.47;5035883;28;20424;-64
2022/07/10 06:42:17;;;;;;;10.18;2.22;;;;;;;17.47;58.86;102130.09;5043709;28;20049;-64
2022/07/10 06:44:48;;;;;;;9.40;2.40;;;;;;;17.71;58.40;102116.50;5036320;28;20079;-65
2022/07/10 06:50:05;;;;;;;8.00;2.05;;;;;;;17.66;57.78;102127.00;5042182;28;20067;-58
2022/07/10 06:52:33;;;;;;;7.20;2.50;;;;;;;17.68;57.76;102136.66;5046912;28;20053;-59
2022/07/10 06:55:02;;;;;;;6.43;2.38;;;;;;;17.68;57.43;102130.28;5028609;28;20056;-59
2022/07/10 06:57:30;;;;;;;8.82;2.10;;;;;;;17.73;56.68;102121.78;5024092;28;20056;-60
2022/07/10 06:59:57;;;;;;;7.65;2.17;;;;;;;17.86;56.61;102127.19;5035505;28;20038;-60
2022/07/10 07:02:25;;;;;;;8.35;2.08;;;;;;;17.79;56.44;102118.50;5016592;28;20049;-60
2022/07/10 07:04:55;;;;;;;5.43;2.00;;;;;;;17.91;56.25;102117.81;5036609;28;20048;-61
2022/07/10 07:07:22;;;;;;;6.82;2.13;;;;;;;18.02;55.86;102121.91;5037994;28;20057;-60
2022/07/10 07:09:52;;;;;;;4.53;1.90;;;;;;;18.26;55.18;102127.78;5038165;28;20054;-57
2022/07/10 07:12:19;;;;;;;9.43;2.22;;;;;;;17.95;55.23;102124.38;5034427;28;20068;-60
2022/07/10 07:14:47;;;;;;;8.90;2.45;;;;;;;18.28;55.39;102136.66;5029386;28;20045;-60
2022/07/10 07:17:25;;;;;;;11.40;2.50;;;;;;;18.41;54.09;102134.84;5019929;28;20045;-62
2022/07/10 07:25:27;;;;;;;8.52;1.88;;;;;;;18.69;51.97;102130.50;5032785;28;20049;-61
2022/07/10 07:27:55;;;;;;;4.97;1.55;;;;;;;18.77;51.99;102119.31;5028165;28;20418;-61
2022/07/10 07:30:22;;;;;;;4.72;1.60;;;;;;;19.19;50.97;102125.00;5029057;28;20696;-59
2022/07/10 07:32:49;;;;;;;6.15;1.80;;;;;;;19.31;50.67;102125.97;5032750;28;20056;-61
2022/07/10 07:35:17;;;;;;;6.30;2.20;;;;;;;19.50;49.66;102115.16;5050779;28;20484;-60
2022/07/10 07:37:49;;;;;;;5.53;1.80;;;;;;;19.97;48.92;102107.34;5035531;28;20045;-56
2022/07/10 07:40:20;;;;;;;7.63;2.03;;;;;;;20.14;48.29;102108.00;5036179;28;20404;-59
2022/07/10 07:42:49;;;;;;;5.35;2.08;;;;;;;20.57;47.33;102092.75;5035273;28;20041;-60
2022/07/10 07:45:16;;;;;;;9.55;2.13;;;;;;;21.04;45.75;102085.59;5042669;28;20049;-60
2022/07/10 07:47:51;;;;;;;8.48;2.03;;;;;;;20.81;45.91;102089.97;5034882;28;20060;-60
2022/07/10 07:50:21;;;;;;;6.32;1.80;;;;;;;21.50;45.31;102082.22;5066822;28;20061;-60
2022/07/10 07:52:49;;;;;;;8.32;1.83;;;;;;;21.58;45.00;102084.09;5031409;28;20054;-60
2022/07/10 07:55:18;;;;;;;7.68;1.80;;;;;;;21.33;44.47;102079.72;5046113;28;20061;-60
2022/07/10 07:57:46;;;;;;;5.93;1.97;;;;;;;21.41;44.05;102083.56;5039822;28;20045;-59
2022/07/10 08:00:17;;;;;;;10.68;2.30;;;;;;;21.34;45.51;102086.94;5046085;28;20049;-61
2022/07/10 08:02:44;;;;;;;8.30;1.77;;;;;;;21.63;44.38;102094.25;5030792;28;20053;-60
2022/07/10 08:05:12;;;;;;;7.20;1.52;;;;;;;21.78;44.12;102080.31;5046213;28;20057;-60
2022/07/10 08:07:42;;;;;;;5.85;1.63;;;;;;;22.02;43.58;102087.84;5045247;28;20054;-61
2022/07/10 08:10:13;;;;;;;7.05;1.60;;;;;;;22.05;42.66;102087.09;5032402;28;20064;-61
2022/07/10 08:12:41;;;;;;;2.85;1.40;;;;;;;21.93;43.52;102084.34;5043385;28;20059;-60
2022/07/10 08:15:10;;;;;;;5.60;1.67;;;;;;;21.44;43.00;102092.06;5020222;28;20038;-60
2022/07/10 08:17:38;;;;;;;7.53;1.90;;;;;;;21.32;43.43;102080.91;5028293;28;20053;-61
2022/07/10 08:20:08;;;;;;;8.82;2.15;;;;;;;21.62;42.43;102084.22;5034163;28;20041;-61
2022/07/10 08:22:35;;;;;;;6.20;1.40;;;;;;;21.29;42.20;102078.78;5033916;28;20530;-61
2022/07/10 08:25:03;;;;;;;4.88;1.70;;;;;;;21.43;43.00;102082.00;5028303;28;20048;-61
2022/07/10 08:27:30;;;;;;;6.82;1.80;;;;;;;21.59;42.29;102082.09;5051176;28;20049;-60
2022/07/10 08:29:57;;;;;;;4.75;1.50;;;;;;;21.17;43.74;102068.41;5023599;28;20535;-60
2022/07/10 08:32:26;;;;;;;7.15;1.90;;;;;;;21.48;42.58;102070.56;5028081;28;20049;-61
2022/07/10 08:34:54;;;;;;;6.50;1.70;;;;;;;21.53;41.56;102078.72;5028096;28;20521;-61
2022/07/10 08:37:21;;;;;;;5.38;1.52;;;;;;;21.17;42.11;102087.19;5031088;28;20515;-60
2022/07/10 08:39:48;;;;;;;4.50;1.52;;;;;;;21.20;42.75;102078.91;5023195;28;20062;-61
2022/07/10 08:42:17;;;;;;;6.70;2.03;;;;;;;21.42;42.22;102073.97;5034812;28;20042;-61
2022/07/10 08:44:45;;;;;;;5.38;1.85;;;;;;;20.82;42.67;102074.81;5040474;28;20042;-61
2022/07/10 08:47:12;;;;;;;8.90;1.80;;;;;;;21.02;42.63;102068.31;5043464;28;20049;-60
2022/07/10 08:49:46;;;;;;;7.63;1.63;;;;;;;21.16;42.15;102063.97;5037874;28;20064;-60
2022/07/10 08:52:32;;;;;;;5.45;1.60;;;;;;;21.39;42.28;102067.09;5033363;28;20389;-61
2022/07/10 08:54:59;;;;;;;8.60;1.80;;;;;;;21.37;41.42;102077.84;5019022;28;20054;-61
2022/07/10 08:57:27;;;;;;;6.50;1.70;;;;;;;21.17;42.48;102057.19;5041240;28;20542;-62
2022/07/10 08:59:54;;;;;;;4.45;1.60;;;;;;;21.35;41.84;102060.56;5032663;28;20042;-61
2022/07/10 09:02:22;;;;;;;5.43;1.83;;;;;;;21.45;41.40;102054.44;5037209;28;20056;-61
2022/07/10 09:04:49;;;;;;;4.30;1.50;;;;;;;21.45;41.15;102062.84;5036064;28;20045;-60
2022/07/10 09:07:17;;;;;;;4.40;1.38;;;;;;;21.34;42.25;102047.69;5041169;28;20053;-60
2022/07/10 09:09:55;;;;;;;7.15;1.70;;;;;;;21.45;41.30;102034.81;5036308;28;20045;-60
2022/07/10 09:12:23;;;;;;;3.78;1.63;;;;;;;21.52;41.26;102035.03;5025987;28;22127;-60
2022/07/10 09:14:51;;;;;;;5.07;1.35;;;;;;;21.37;41.52;102041.41;5029204;28;20046;-61
2022/07/10 09:17:18;;;;;;;8.80;1.60;;;;;;;21.56;42.48;102023.94;5040405;28;20052;-60
2022/07/10 09:19:46;;;;;;;6.25;2.35;;;;;;;21.64;41.29;102026.56;5026542;28;20045;-63
2022/07/10 09:22:17;;;;;;;7.88;1.70;;;;;;;21.52;41.67;102023.00;5044433;28;20357;-60
2022/07/10 09:24:45;;;;;;;;;;;;;;;21.73;41.64;102026.41;5029477;28;20046;-59
2022/07/10 09:27:15;;;;;;;8.50;1.83;;;;;;;21.79;41.30;102034.25;5031736;28;19921;-62
2022/07/10 09:29:51;;;;;;;4.20;1.33;;;;;;;21.72;41.12;102033.22;5034100;28;20049;-58
2022/07/10 09:32:19;;;;;;;7.38;1.83;;;;;;;21.69;40.65;102028.34;5028072;28;20056;-61
2022/07/10 09:37:40;;;;;;;4.68;1.60;;;;;;;21.29;42.03;102024.72;5028120;28;20057;-60
2022/07/10 09:40:08;;;;;;;5.15;1.60;;;;;;;21.57;41.89;102022.75;5044530;28;20502;-61
2022/07/10 09:42:40;;;;;;;4.65;1.50;;;;;;;21.60;41.31;102041.69;5036998;28;20053;-60
2022/07/10 09:45:13;;;;;;;3.78;1.42;;;;;;;21.49;41.64;102029.31;5024716;28;20048;-59
2022/07/10 09:47:43;;;;;;;3.72;1.42;;;;;;;21.92;42.09;102033.03;5041946;28;20041;-61
2022/07/10 09:50:26;;;;;;;3.38;1.30;;;;;;;21.64;40.93;102037.78;5035248;28;20062;-59
2022/07/10 09:52:56;;;;;;;6.25;1.60;;;;;;;21.46;41.19;102033.66;5039525;28;20045;-61
2022/07/10 09:55:26;;;;;;;;;;;;;;;21.39;41.38;102027.84;5031102;28;20052;-60
2022/07/10 09:57:55;;;;;;;4.85;1.65;;;;;;;21.52;41.35;102028.59;5028446;28;20343;-60
2022/07/10 10:00:26;;;;;;;3.50;1.33;;;;;;;21.62;41.54;102020.50;5031067;28;20061;-61
2022/07/10 10:03:02;;;;;;;3.70;1.40;;;;;;;21.67;41.16;102027.88;5033292;28;20057;-60
2022/07/10 10:05:43;;;;;;;5.15;1.90;;;;;;;21.55;41.31;102036.31;5040487;28;20052;-60
2022/07/10 10:08:17;;;;;;;6.05;1.60;;;;;;;21.57;40.81;102025.53;5020587;28;20054;-63
2022/07/10 10:10:47;;;;;;;4.63;1.58;;;;;;;21.45;41.47;102020.81;5054861;28;20133;-61
2022/07/10 10:13:20;;;;;;;6.15;1.65;;;;;;;21.69;41.04;102020.72;5033264;28;20073;-62
2022/07/10 10:15:49;;;;;;;6.43;1.60;;;;;;;21.68;40.69;102021.06;5027208;28;20061;-61
2022/07/10 10:18:18;;;;;;;5.32;1.30;;;;;;;21.68;41.08;102013.47;5034237;28;20064;-60
2022/07/10 10:20:47;;;;;;;4.40;1.67;;;;;;;21.67;40.80;102009.03;5050523;28;20487;-61
2022/07/10 10:23:22;;;;;;;6.90;1.52;;;;;;;21.79;40.95;102006.19;5053504;28;20046;-60
2022/07/10 10:25:51;;;;;;;3.97;1.25;;;;;;;22.03;40.19;102011.69;5028441;28;20046;-67
2022/07/10 10:28:23;;;;;;;3.85;1.40;;;;;;;21.79;40.45;102003.38;5040929;28;20049;-67
2022/07/10 10:30:57;;;;;;;6.93;1.60;;;;;;;22.01;40.43;102002.81;5033700;28;20096;-68
2022/07/10 10:33:34;;;;;;;2.70;1.23;;;;;;;21.97;40.19;102001.09;5038827;28;20060;-66
2022/07/10 10:36:13;;;;;;;4.25;1.60;;;;;;;22.02;40.39;102007.25;5024580;28;20049;-68
2022/07/10 10:38:51;;;;;;;5.55;1.50;;;;;;;22.01;40.29;101993.59;5028772;28;20491;-67
2022/07/10 10:41:31;;;;;;;6.18;1.83;;;;;;;21.99;40.34;101987.50;5027476;28;20068;-68
2022/07/10 10:44:13;;;;;;;6.65;1.65;;;;;;;22.10;40.37;101980.19;5030313;28;21925;-66
2022/07/10 10:47:00;;;;;;;4.18;1.50;;;;;;;22.23;39.83;101988.16;5033593;28;20065;-67
2022/07/10 10:49:49;;;;;;;5.93;3.03;;;;;;;22.22;39.74;101982.91;5034755;28;20442;-67
2022/07/10 10:52:17;;;;;;;4.10;1.60;;;;;;;22.20;40.31;101972.06;5029472;28;20068;-66
2022/07/10 10:54:57;;;;;;;8.52;1.55;;;;;;;22.31;39.96;101989.19;5029575;28;20064;-66
2022/07/10 10:57:36;;;;;;;9.73;1.95;;;;;;;22.35;39.98;101965.63;5034051;28;20049;-65
2022/07/10 11:00:08;;;;;;;4.10;1.55;;;;;;;22.54;39.83;101967.75;5038190;28;20049;-66
2022/07/10 11:02:38;;;;;;;4.30;1.60;;;;;;;22.70;39.75;101964.91;5060527;28;20053;-66
2022/07/10 11:05:12;;;;;;;4.95;1.65;;;;;;;22.40;40.01;101955.31;5039796;28;20049;-66
2022/07/10 11:08:00;;;;;;;7.50;1.50;;;;;;;22.58;39.95;101965.03;5031509;28;20056;-67
2022/07/10 11:10:37;;;;;;;3.75;1.27;;;;;;;22.48;40.25;101948.66;5028777;28;20515;-66
2022/07/10 11:13:16;;;;;;;4.78;1.50;;;;;;;22.60;39.57;101946.59;5026314;28;20046;-67
2022/07/10 11:15:52;;;;;;;4.18;1.30;;;;;;;22.65;39.42;101951.94;5029959;28;20042;-67
2022/07/10 11:18:26;;;;;;;4.32;1.50;;;;;;;22.70;39.81;101948.06;5049571;28;20416;-66
2022/07/10 11:20:53;;;;;;;5.20;1.63;;;;;;;22.77;39.73;101951.03;5034592;28;20045;-66
2022/07/10 11:23:47;;;;;;;5.25;1.83;;;;;;;22.75;39.86;101940.13;5029617;28;20054;-67
2022/07/10 11:26:35;;;;;;;;;;;;;;;22.68;39.80;101936.38;5032009;28;20050;-65
2022/07/10 11:29:05;;;;;;;5.70;1.60;;;;;;;22.92;39.73;101924.88;5042794;28;19921;-66
2022/07/10 11:31:44;;;;;;;4.43;1.58;;;;;;;22.92;39.58;101920.06;5027464;28;20060;-68
2022/07/10 11:34:11;;;;;;;7.40;1.75;;;;;;;22.74;39.95;101934.88;5034815;28;20057;-67
2022/07/10 11:36:39;;;;;;;4.82;1.70;;;;;;;22.72;39.65;101926.00;5024807;28;20045;-67
2022/07/10 11:39:08;;;;;;;5.20;1.88;;;;;;;22.80;40.18;101919.38;5026459;28;20077;-67
2022/07/10 11:41:43;;;;;;;7.55;1.50;;;;;;;23.04;39.52;101930.34;5030242;28;20053;-66
2022/07/10 11:44:20;;;;;;;3.45;1.23;;;;;;;22.87;39.86;101913.94;5047899;28;20076;-66
2022/07/10 11:46:49;;;;;;;4.95;1.40;;;;;;;22.98;39.71;101912.97;5035516;28;20428;-66
2022/07/10 11:49:17;;;;;;;5.03;1.73;;;;;;;23.03;39.58;101911.88;5021825;28;20058;-67
2022/07/10 11:51:45;;;;;;;3.30;1.35;;;;;;;22.88;39.74;101921.97;5029241;28;20059;-68